North Franklin, New York
Current Conditions -  °F | °C
As of 1:15 PM on Tuesday 21 Oct 2014 (Local Time) from KNY0 Reporting Station
Overcast Overcast  
Wind Chill: 45°   Ceiling: 600
Heat Index: 47°   Visibility: 10mi
Dew Point: 46°   Wind: 6mph
Humidity: 93%   Direction: 90°E
Pressure: 29.91"   Gusts: NA
Location:  42.4787°N, 75.0181°W
Report Text: KNY0 211715Z AUTO 09005KT 10SM OVC006 09/08 A2991 RMK AO2 T00860075
Loading
Personal Weather Stations






























Interactive Weather Map
Tropical Storm Tracking
New forecast layout! Learn more

10-Day Weather Forecast

Advertisements
Track Severe Weather on mobile